sensor_id;sensor_type;location;lat;lon;timestamp;temperature;humidity
51273;DHT22;37345;59.828;30.328;2022-08-03T00:01:42;15.80;99.90
51273;DHT22;37345;59.828;30.328;2022-08-03T00:04:09;15.70;99.90
51273;DHT22;37345;59.828;30.328;2022-08-03T00:06:36;15.60;99.90
51273;DHT22;37345;59.828;30.328;2022-08-03T00:09:03;15.70;99.90
51273;DHT22;37345;59.828;30.328;2022-08-03T00:11:29;15.60;99.90
51273;DHT22;37345;59.828;30.328;2022-08-03T00:13:55;15.50;99.90
51273;DHT22;37345;59.828;30.328;2022-08-03T00:16:21;15.40;99.90
51273;DHT22;37345;59.828;30.328;2022-08-03T00:18:47;15.60;99.90
51273;DHT22;37345;59.828;30.328;2022-08-03T00:21:12;15.50;99.90
51273;DHT22;37345;59.828;30.328;2022-08-03T00:23:38;15.40;99.90
51273;DHT22;37345;59.828;30.328;2022-08-03T00:26:04;15.30;99.90
51273;DHT22;37345;59.828;30.328;2022-08-03T00:28:30;15.30;99.90
51273;DHT22;37345;59.828;30.328;2022-08-03T00:30:56;15.40;99.90
51273;DHT22;37345;59.828;30.328;2022-08-03T00:33:22;15.60;99.90
51273;DHT22;37345;59.828;30.328;2022-08-03T00:35:48;15.60;99.90
51273;DHT22;37345;59.828;30.328;2022-08-03T00:38:13;15.70;99.90
51273;DHT22;37345;59.828;30.328;2022-08-03T00:40:39;15.50;99.90
51273;DHT22;37345;59.828;30.328;2022-08-03T00:43:07;15.70;99.90
51273;DHT22;37345;59.828;30.328;2022-08-03T00:45:35;15.60;99.90
51273;DHT22;37345;59.828;30.328;2022-08-03T00:48:03;15.60;99.90
51273;DHT22;37345;59.828;30.328;2022-08-03T00:50:30;15.70;99.90
51273;DHT22;37345;59.828;30.328;2022-08-03T00:52:59;15.60;99.90
51273;DHT22;37345;59.828;30.328;2022-08-03T00:55:26;15.70;99.90
51273;DHT22;37345;59.828;30.328;2022-08-03T00:57:53;15.70;99.90
51273;DHT22;37345;59.828;30.328;2022-08-03T01:00:21;15.70;99.90
51273;DHT22;37345;59.828;30.328;2022-08-03T01:02:47;15.60;99.90
51273;DHT22;37345;59.828;30.328;2022-08-03T01:05:13;15.60;99.90
51273;DHT22;37345;59.828;30.328;2022-08-03T01:12:58;15.60;99.90
51273;DHT22;37345;59.828;30.328;2022-08-03T01:15:36;15.80;99.90
51273;DHT22;37345;59.828;30.328;2022-08-03T01:18:13;15.70;99.90
51273;DHT22;37345;59.828;30.328;2022-08-03T01:20:44;15.80;99.90
51273;DHT22;37345;59.828;30.328;2022-08-03T01:26:12;15.80;99.90
51273;DHT22;37345;59.828;30.328;2022-08-03T01:32:00;15.70;99.90
51273;DHT22;37345;59.828;30.328;2022-08-03T01:34:30;15.70;99.90
51273;DHT22;37345;59.828;30.328;2022-08-03T01:36:59;15.80;99.90
51273;DHT22;37345;59.828;30.328;2022-08-03T01:39:28;15.80;99.90
51273;DHT22;37345;59.828;30.328;2022-08-03T01:41:58;15.80;99.90
51273;DHT22;37345;59.828;30.328;2022-08-03T01:44:29;15.90;99.90
51273;DHT22;37345;59.828;30.328;2022-08-03T01:46:59;16.00;99.90
51273;DHT22;37345;59.828;30.328;2022-08-03T01:49:28;15.90;99.90
51273;DHT22;37345;59.828;30.328;2022-08-03T01:51:55;16.00;99.90
51273;DHT22;37345;59.828;30.328;2022-08-03T01:54:23;16.00;99.90
51273;DHT22;37345;59.828;30.328;2022-08-03T01:56:51;15.90;99.90
51273;DHT22;37345;59.828;30.328;2022-08-03T01:59:18;15.80;99.90
51273;DHT22;37345;59.828;30.328;2022-08-03T02:01:45;15.80;99.90
51273;DHT22;37345;59.828;30.328;2022-08-03T02:04:14;16.00;99.90
51273;DHT22;37345;59.828;30.328;2022-08-03T02:06:42;16.10;99.90
51273;DHT22;37345;59.828;30.328;2022-08-03T02:09:12;15.90;99.90
51273;DHT22;37345;59.828;30.328;2022-08-03T02:11:38;16.40;99.90
51273;DHT22;37345;59.828;30.328;2022-08-03T02:14:05;17.10;99.90
51273;DHT22;37345;59.828;30.328;2022-08-03T02:16:40;17.50;99.90
51273;DHT22;37345;59.828;30.328;2022-08-03T02:19:11;18.20;99.90
51273;DHT22;37345;59.828;30.328;2022-08-03T02:21:37;18.50;99.90
51273;DHT22;37345;59.828;30.328;2022-08-03T02:24:04;18.80;99.90
51273;DHT22;37345;59.828;30.328;2022-08-03T02:26:31;19.10;99.90
51273;DHT22;37345;59.828;30.328;2022-08-03T02:29:04;19.40;99.90
51273;DHT22;37345;59.828;30.328;2022-08-03T02:31:33;19.80;99.90
51273;DHT22;37345;59.828;30.328;2022-08-03T02:34:05;20.00;99.90
51273;DHT22;37345;59.828;30.328;2022-08-03T02:36:41;20.40;99.90
51273;DHT22;37345;59.828;30.328;2022-08-03T02:39:12;20.70;99.90
51273;DHT22;37345;59.828;30.328;2022-08-03T02:41:47;20.90;99.90
51273;DHT22;37345;59.828;30.328;2022-08-03T02:44:16;21.10;99.90
51273;DHT22;37345;59.828;30.328;2022-08-03T02:46:45;21.10;99.90
51273;DHT22;37345;59.828;30.328;2022-08-03T02:49:17;21.00;99.90
51273;DHT22;37345;59.828;30.328;2022-08-03T02:51:44;21.00;99.90
51273;DHT22;37345;59.828;30.328;2022-08-03T02:54:15;21.30;99.90
51273;DHT22;37345;59.828;30.328;2022-08-03T02:56:44;21.10;99.90
51273;DHT22;37345;59.828;30.328;2022-08-03T02:59:12;21.70;99.90
51273;DHT22;37345;59.828;30.328;2022-08-03T03:01:38;21.50;99.90
51273;DHT22;37345;59.828;30.328;2022-08-03T03:04:05;21.50;99.90
51273;DHT22;37345;59.828;30.328;2022-08-03T03:06:32;21.50;99.90
51273;DHT22;37345;59.828;30.328;2022-08-03T03:08:58;21.90;99.90
51273;DHT22;37345;59.828;30.328;2022-08-03T03:11:25;21.60;99.90
51273;DHT22;37345;59.828;30.328;2022-08-03T03:13:52;21.70;99.90
51273;DHT22;37345;59.828;30.328;2022-08-03T03:16:18;21.80;99.90
51273;DHT22;37345;59.828;30.328;2022-08-03T03:18:52;22.30;99.90
51273;DHT22;37345;59.828;30.328;2022-08-03T03:21:20;21.60;99.90
51273;DHT22;37345;59.828;30.328;2022-08-03T03:23:46;21.00;99.90
51273;DHT22;37345;59.828;30.328;2022-08-03T03:26:14;20.50;99.90
51273;DHT22;37345;59.828;30.328;2022-08-03T03:28:40;20.30;99.90
51273;DHT22;37345;59.828;30.328;2022-08-03T03:31:08;20.60;99.90
51273;DHT22;37345;59.828;30.328;2022-08-03T03:33:35;20.90;99.90
51273;DHT22;37345;59.828;30.328;2022-08-03T03:36:03;21.10;99.90
51273;DHT22;37345;59.828;30.328;2022-08-03T03:38:29;21.40;99.90
51273;DHT22;37345;59.828;30.328;2022-08-03T03:40:56;21.30;99.90
51273;DHT22;37345;59.828;30.328;2022-08-03T03:43:22;20.90;99.90
51273;DHT22;37345;59.828;30.328;2022-08-03T03:45:49;21.10;99.90
51273;DHT22;37345;59.828;30.328;2022-08-03T03:48:18;21.20;99.90
51273;DHT22;37345;59.828;30.328;2022-08-03T03:50:44;21.20;99.90
51273;DHT22;37345;59.828;30.328;2022-08-03T03:53:12;21.50;99.90
51273;DHT22;37345;59.828;30.328;2022-08-03T03:55:38;21.70;99.90
51273;DHT22;37345;59.828;30.328;2022-08-03T03:58:05;21.80;99.90
51273;DHT22;37345;59.828;30.328;2022-08-03T04:00:31;22.70;99.90
51273;DHT22;37345;59.828;30.328;2022-08-03T04:02:57;22.80;99.90
51273;DHT22;37345;59.828;30.328;2022-08-03T04:05:23;23.00;99.90
51273;DHT22;37345;59.828;30.328;2022-08-03T04:08:13;22.80;99.90
51273;DHT22;37345;59.828;30.328;2022-08-03T04:11:10;23.40;99.90
51273;DHT22;37345;59.828;30.328;2022-08-03T04:13:46;23.10;99.90
51273;DHT22;37345;59.828;30.328;2022-08-03T04:16:16;22.60;99.90
51273;DHT22;37345;59.828;30.328;2022-08-03T04:18:46;22.70;99.90
51273;DHT22;37345;59.828;30.328;2022-08-03T04:21:15;22.70;99.90
51273;DHT22;37345;59.828;30.328;2022-08-03T04:23:46;22.80;99.90
51273;DHT22;37345;59.828;30.328;2022-08-03T04:26:15;23.60;99.90
51273;DHT22;37345;59.828;30.328;2022-08-03T04:28:44;24.20;99.90
51273;DHT22;37345;59.828;30.328;2022-08-03T04:31:13;24.40;99.90
51273;DHT22;37345;59.828;30.328;2022-08-03T04:33:40;24.30;99.90
51273;DHT22;37345;59.828;30.328;2022-08-03T04:36:11;23.90;99.90
51273;DHT22;37345;59.828;30.328;2022-08-03T04:38:49;24.20;99.90
51273;DHT22;37345;59.828;30.328;2022-08-03T04:41:19;25.00;99.90
51273;DHT22;37345;59.828;30.328;2022-08-03T04:43:46;24.80;99.90
51273;DHT22;37345;59.828;30.328;2022-08-03T04:46:14;24.60;99.90
51273;DHT22;37345;59.828;30.328;2022-08-03T04:48:40;24.80;99.90
51273;DHT22;37345;59.828;30.328;2022-08-03T04:51:07;24.50;99.90
51273;DHT22;37345;59.828;30.328;2022-08-03T04:53:37;24.60;99.90
51273;DHT22;37345;59.828;30.328;2022-08-03T04:56:04;24.70;99.90
51273;DHT22;37345;59.828;30.328;2022-08-03T04:58:30;24.10;99.90
51273;DHT22;37345;59.828;30.328;2022-08-03T05:00:56;25.10;99.90
51273;DHT22;37345;59.828;30.328;2022-08-03T05:03:21;25.60;99.90
51273;DHT22;37345;59.828;30.328;2022-08-03T05:05:47;25.50;99.90
51273;DHT22;37345;59.828;30.328;2022-08-03T05:08:13;25.50;99.90
51273;DHT22;37345;59.828;30.328;2022-08-03T05:10:39;25.90;99.90
51273;DHT22;37345;59.828;30.328;2022-08-03T05:13:05;25.70;99.90
51273;DHT22;37345;59.828;30.328;2022-08-03T05:15:36;25.50;99.90
51273;DHT22;37345;59.828;30.328;2022-08-03T05:18:02;25.70;99.90
51273;DHT22;37345;59.828;30.328;2022-08-03T05:20:27;25.30;99.90
51273;DHT22;37345;59.828;30.328;2022-08-03T05:22:59;25.00;99.90
51273;DHT22;37345;59.828;30.328;2022-08-03T05:25:26;25.20;99.90
51273;DHT22;37345;59.828;30.328;2022-08-03T05:27:52;25.30;99.90
51273;DHT22;37345;59.828;30.328;2022-08-03T05:30:18;25.40;99.90
51273;DHT22;37345;59.828;30.328;2022-08-03T05:32:44;25.30;99.90
51273;DHT22;37345;59.828;30.328;2022-08-03T05:35:10;25.40;99.90
51273;DHT22;37345;59.828;30.328;2022-08-03T05:37:39;25.20;99.90
51273;DHT22;37345;59.828;30.328;2022-08-03T05:40:05;24.90;99.90
51273;DHT22;37345;59.828;30.328;2022-08-03T05:42:31;24.90;99.90
51273;DHT22;37345;59.828;30.328;2022-08-03T05:44:57;24.90;99.90
51273;DHT22;37345;59.828;30.328;2022-08-03T05:47:22;24.90;99.90
51273;DHT22;37345;59.828;30.328;2022-08-03T05:49:48;24.70;99.90
51273;DHT22;37345;59.828;30.328;2022-08-03T05:52:14;24.90;99.90
51273;DHT22;37345;59.828;30.328;2022-08-03T05:54:40;25.80;99.90
51273;DHT22;37345;59.828;30.328;2022-08-03T05:57:06;25.40;99.90
51273;DHT22;37345;59.828;30.328;2022-08-03T05:59:31;25.20;99.90
51273;DHT22;37345;59.828;30.328;2022-08-03T06:01:57;25.00;99.90
51273;DHT22;37345;59.828;30.328;2022-08-03T06:04:23;25.30;99.90
51273;DHT22;37345;59.828;30.328;2022-08-03T06:06:49;25.00;99.90
51273;DHT22;37345;59.828;30.328;2022-08-03T06:09:16;24.60;99.90
51273;DHT22;37345;59.828;30.328;2022-08-03T06:11:45;24.70;99.90
51273;DHT22;37345;59.828;30.328;2022-08-03T06:14:11;24.90;99.90
51273;DHT22;37345;59.828;30.328;2022-08-03T06:16:36;24.50;99.90
51273;DHT22;37345;59.828;30.328;2022-08-03T06:19:05;24.40;99.90
51273;DHT22;37345;59.828;30.328;2022-08-03T06:21:31;25.10;99.90
51273;DHT22;37345;59.828;30.328;2022-08-03T06:23:57;24.80;99.90
51273;DHT22;37345;59.828;30.328;2022-08-03T06:26:26;25.00;99.90
51273;DHT22;37345;59.828;30.328;2022-08-03T06:28:52;25.80;99.90
51273;DHT22;37345;59.828;30.328;2022-08-03T06:31:19;25.60;99.90
51273;DHT22;37345;59.828;30.328;2022-08-03T06:33:45;25.20;99.90
51273;DHT22;37345;59.828;30.328;2022-08-03T06:36:11;25.50;99.90
51273;DHT22;37345;59.828;30.328;2022-08-03T06:38:37;25.90;99.90
51273;DHT22;37345;59.828;30.328;2022-08-03T06:41:03;25.90;99.90
51273;DHT22;37345;59.828;30.328;2022-08-03T06:43:28;26.30;99.90
51273;DHT22;37345;59.828;30.328;2022-08-03T06:45:54;25.80;99.90
51273;DHT22;37345;59.828;30.328;2022-08-03T06:48:20;26.10;99.90
51273;DHT22;37345;59.828;30.328;2022-08-03T06:50:46;25.90;99.90
51273;DHT22;37345;59.828;30.328;2022-08-03T06:53:12;26.00;99.90
51273;DHT22;37345;59.828;30.328;2022-08-03T06:55:37;26.10;99.90
51273;DHT22;37345;59.828;30.328;2022-08-03T06:58:05;26.20;99.90
51273;DHT22;37345;59.828;30.328;2022-08-03T07:00:31;26.30;99.90
51273;DHT22;37345;59.828;30.328;2022-08-03T07:02:57;26.20;99.90
51273;DHT22;37345;59.828;30.328;2022-08-03T07:05:23;26.20;99.90
51273;DHT22;37345;59.828;30.328;2022-08-03T07:07:49;26.70;99.90
51273;DHT22;37345;59.828;30.328;2022-08-03T07:10:15;26.50;99.90
51273;DHT22;37345;59.828;30.328;2022-08-03T07:12:40;26.50;99.90
51273;DHT22;37345;59.828;30.328;2022-08-03T07:15:06;26.70;99.90
51273;DHT22;37345;59.828;30.328;2022-08-03T07:17:34;26.40;99.90
51273;DHT22;37345;59.828;30.328;2022-08-03T07:20:03;26.00;99.90
51273;DHT22;37345;59.828;30.328;2022-08-03T07:22:29;25.50;99.90
51273;DHT22;37345;59.828;30.328;2022-08-03T07:24:55;25.70;99.90
51273;DHT22;37345;59.828;30.328;2022-08-03T07:27:21;25.90;99.90
51273;DHT22;37345;59.828;30.328;2022-08-03T07:29:47;26.20;99.90
51273;DHT22;37345;59.828;30.328;2022-08-03T07:32:13;25.90;99.90
51273;DHT22;37345;59.828;30.328;2022-08-03T07:34:39;26.20;99.90
51273;DHT22;37345;59.828;30.328;2022-08-03T07:37:05;26.10;99.90
51273;DHT22;37345;59.828;30.328;2022-08-03T07:39:30;25.80;99.90
51273;DHT22;37345;59.828;30.328;2022-08-03T07:41:56;25.90;99.90
51273;DHT22;37345;59.828;30.328;2022-08-03T07:44:22;25.70;99.90
51273;DHT22;37345;59.828;30.328;2022-08-03T07:46:48;25.50;99.90
51273;DHT22;37345;59.828;30.328;2022-08-03T07:49:15;26.60;99.90
51273;DHT22;37345;59.828;30.328;2022-08-03T07:51:41;27.10;99.90
51273;DHT22;37345;59.828;30.328;2022-08-03T07:54:07;27.70;99.90
51273;DHT22;37345;59.828;30.328;2022-08-03T07:56:35;27.90;99.90
51273;DHT22;37345;59.828;30.328;2022-08-03T07:59:01;27.90;99.90
51273;DHT22;37345;59.828;30.328;2022-08-03T08:01:27;28.60;99.90
51273;DHT22;37345;59.828;30.328;2022-08-03T08:03:54;28.50;99.90
51273;DHT22;37345;59.828;30.328;2022-08-03T08:06:20;27.80;99.90
51273;DHT22;37345;59.828;30.328;2022-08-03T08:08:46;27.50;99.90
51273;DHT22;37345;59.828;30.328;2022-08-03T08:11:12;27.60;99.90
51273;DHT22;37345;59.828;30.328;2022-08-03T08:13:38;26.90;99.90
51273;DHT22;37345;59.828;30.328;2022-08-03T08:16:06;26.20;99.90
51273;DHT22;37345;59.828;30.328;2022-08-03T08:18:32;26.00;99.90
51273;DHT22;37345;59.828;30.328;2022-08-03T08:20:58;25.70;99.90
51273;DHT22;37345;59.828;30.328;2022-08-03T08:23:26;26.00;99.90
51273;DHT22;37345;59.828;30.328;2022-08-03T08:25:55;26.20;99.90
51273;DHT22;37345;59.828;30.328;2022-08-03T08:28:21;26.60;99.90
51273;DHT22;37345;59.828;30.328;2022-08-03T08:30:47;26.60;99.90
51273;DHT22;37345;59.828;30.328;2022-08-03T08:33:13;26.60;99.90
51273;DHT22;37345;59.828;30.328;2022-08-03T08:35:39;26.50;99.90
51273;DHT22;37345;59.828;30.328;2022-08-03T08:38:05;27.20;99.90
51273;DHT22;37345;59.828;30.328;2022-08-03T08:40:31;27.20;99.90
51273;DHT22;37345;59.828;30.328;2022-08-03T08:43:00;27.00;99.90
51273;DHT22;37345;59.828;30.328;2022-08-03T08:45:26;26.50;99.90
51273;DHT22;37345;59.828;30.328;2022-08-03T08:47:54;26.30;99.90
51273;DHT22;37345;59.828;30.328;2022-08-03T08:50:21;26.10;99.90
51273;DHT22;37345;59.828;30.328;2022-08-03T08:53:12;25.40;99.90
51273;DHT22;37345;59.828;30.328;2022-08-03T08:55:41;25.70;99.90
51273;DHT22;37345;59.828;30.328;2022-08-03T08:58:10;26.40;99.90
51273;DHT22;37345;59.828;30.328;2022-08-03T09:00:40;26.90;99.90
51273;DHT22;37345;59.828;30.328;2022-08-03T09:03:10;27.10;99.90
51273;DHT22;37345;59.828;30.328;2022-08-03T09:05:41;27.40;99.90
51273;DHT22;37345;59.828;30.328;2022-08-03T09:08:07;27.30;99.90
51273;DHT22;37345;59.828;30.328;2022-08-03T09:10:33;28.00;99.90
51273;DHT22;37345;59.828;30.328;2022-08-03T09:13:00;28.20;99.90
51273;DHT22;37345;59.828;30.328;2022-08-03T09:15:43;28.30;99.90
51273;DHT22;37345;59.828;30.328;2022-08-03T09:18:29;30.20;99.90
51273;DHT22;37345;59.828;30.328;2022-08-03T09:21:21;28.40;99.90
51273;DHT22;37345;59.828;30.328;2022-08-03T09:23:53;28.50;99.90
51273;DHT22;37345;59.828;30.328;2022-08-03T09:26:27;28.30;99.90
51273;DHT22;37345;59.828;30.328;2022-08-03T09:29:02;29.10;99.90
51273;DHT22;37345;59.828;30.328;2022-08-03T09:31:35;29.40;97.80
51273;DHT22;37345;59.828;30.328;2022-08-03T09:34:06;29.00;99.20
51273;DHT22;37345;59.828;30.328;2022-08-03T09:36:50;27.80;99.60
51273;DHT22;37345;59.828;30.328;2022-08-03T09:39:20;27.30;99.90
51273;DHT22;37345;59.828;30.328;2022-08-03T09:44:40;26.80;99.90
51273;DHT22;37345;59.828;30.328;2022-08-03T09:47:49;26.70;99.90
51273;DHT22;37345;59.828;30.328;2022-08-03T09:50:08;26.00;99.90
51273;DHT22;37345;59.828;30.328;2022-08-03T09:52:39;26.30;99.90
51273;DHT22;37345;59.828;30.328;2022-08-03T09:55:12;26.00;99.90
51273;DHT22;37345;59.828;30.328;2022-08-03T09:57:38;26.00;99.90
51273;DHT22;37345;59.828;30.328;2022-08-03T10:00:13;26.10;99.90
51273;DHT22;37345;59.828;30.328;2022-08-03T10:02:40;26.30;99.90
51273;DHT22;37345;59.828;30.328;2022-08-03T10:05:07;26.80;99.90
51273;DHT22;37345;59.828;30.328;2022-08-03T10:07:47;27.10;99.90
51273;DHT22;37345;59.828;30.328;2022-08-03T10:10:15;26.50;99.90
51273;DHT22;37345;59.828;30.328;2022-08-03T10:12:42;26.30;99.90
51273;DHT22;37345;59.828;30.328;2022-08-03T10:15:09;26.60;99.90
51273;DHT22;37345;59.828;30.328;2022-08-03T10:17:36;26.10;99.90
51273;DHT22;37345;59.828;30.328;2022-08-03T10:20:03;26.10;99.90
51273;DHT22;37345;59.828;30.328;2022-08-03T10:22:35;25.90;99.90
51273;DHT22;37345;59.828;30.328;2022-08-03T10:25:07;25.70;99.90
51273;DHT22;37345;59.828;30.328;2022-08-03T10:27:37;25.20;99.90
51273;DHT22;37345;59.828;30.328;2022-08-03T10:30:09;24.90;99.90
51273;DHT22;37345;59.828;30.328;2022-08-03T10:32:40;25.30;99.90
51273;DHT22;37345;59.828;30.328;2022-08-03T10:35:18;26.10;99.90
51273;DHT22;37345;59.828;30.328;2022-08-03T10:37:57;26.80;99.90
51273;DHT22;37345;59.828;30.328;2022-08-03T10:40:26;27.00;99.90
51273;DHT22;37345;59.828;30.328;2022-08-03T10:42:55;26.70;99.90
51273;DHT22;37345;59.828;30.328;2022-08-03T10:45:26;26.80;99.90
51273;DHT22;37345;59.828;30.328;2022-08-03T10:47:55;26.70;99.90
51273;DHT22;37345;59.828;30.328;2022-08-03T10:50:24;26.10;99.90
51273;DHT22;37345;59.828;30.328;2022-08-03T10:52:56;26.20;99.90
51273;DHT22;37345;59.828;30.328;2022-08-03T10:55:33;26.50;99.90
51273;DHT22;37345;59.828;30.328;2022-08-03T11:01:06;26.20;99.90
51273;DHT22;37345;59.828;30.328;2022-08-03T11:03:33;26.00;99.90
51273;DHT22;37345;59.828;30.328;2022-08-03T11:06:16;25.70;99.90
51273;DHT22;37345;59.828;30.328;2022-08-03T11:08:50;25.90;99.90
51273;DHT22;37345;59.828;30.328;2022-08-03T11:11:41;25.50;99.90
51273;DHT22;37345;59.828;30.328;2022-08-03T11:14:08;25.30;99.90
51273;DHT22;37345;59.828;30.328;2022-08-03T11:16:40;25.30;99.90
51273;DHT22;37345;59.828;30.328;2022-08-03T11:19:11;25.20;99.90
51273;DHT22;37345;59.828;30.328;2022-08-03T11:35:11;25.40;99.90
51273;DHT22;37345;59.828;30.328;2022-08-03T11:38:04;25.20;99.90
51273;DHT22;37345;59.828;30.328;2022-08-03T11:46:10;25.50;99.90
51273;DHT22;37345;59.828;30.328;2022-08-03T11:48:43;25.70;99.90
51273;DHT22;37345;59.828;30.328;2022-08-03T11:51:29;25.60;99.90
51273;DHT22;37345;59.828;30.328;2022-08-03T11:57:31;25.80;99.90
51273;DHT22;37345;59.828;30.328;2022-08-03T11:59:58;25.50;99.90
51273;DHT22;37345;59.828;30.328;2022-08-03T12:02:24;25.40;99.90
51273;DHT22;37345;59.828;30.328;2022-08-03T12:04:58;25.50;99.90
51273;DHT22;37345;59.828;30.328;2022-08-03T12:07:28;25.70;99.90
51273;DHT22;37345;59.828;30.328;2022-08-03T12:10:15;25.30;99.90
51273;DHT22;37345;59.828;30.328;2022-08-03T12:12:57;25.50;99.90
51273;DHT22;37345;59.828;30.328;2022-08-03T12:15:31;26.30;99.90
51273;DHT22;37345;59.828;30.328;2022-08-03T12:18:19;26.20;99.90
51273;DHT22;37345;59.828;30.328;2022-08-03T12:24:44;26.00;99.90
51273;DHT22;37345;59.828;30.328;2022-08-03T12:27:25;26.10;99.90
51273;DHT22;37345;59.828;30.328;2022-08-03T12:29:54;25.70;99.90
51273;DHT22;37345;59.828;30.328;2022-08-03T12:32:20;25.60;99.90
51273;DHT22;37345;59.828;30.328;2022-08-03T12:34:47;25.30;99.90
51273;DHT22;37345;59.828;30.328;2022-08-03T12:37:18;25.70;99.90
51273;DHT22;37345;59.828;30.328;2022-08-03T12:39:52;25.50;99.90
51273;DHT22;37345;59.828;30.328;2022-08-03T12:42:18;25.50;99.90
51273;DHT22;37345;59.828;30.328;2022-08-03T12:44:44;25.70;99.90
51273;DHT22;37345;59.828;30.328;2022-08-03T12:47:11;25.40;99.90
51273;DHT22;37345;59.828;30.328;2022-08-03T12:49:52;25.60;99.90
51273;DHT22;37345;59.828;30.328;2022-08-03T12:52:20;25.50;99.90
51273;DHT22;37345;59.828;30.328;2022-08-03T12:54:57;25.30;99.90
51273;DHT22;37345;59.828;30.328;2022-08-03T12:57:23;25.20;99.90
51273;DHT22;37345;59.828;30.328;2022-08-03T12:59:49;25.40;99.90
51273;DHT22;37345;59.828;30.328;2022-08-03T13:02:23;25.50;99.90
51273;DHT22;37345;59.828;30.328;2022-08-03T13:04:50;25.40;99.90
51273;DHT22;37345;59.828;30.328;2022-08-03T13:07:17;25.30;99.90
51273;DHT22;37345;59.828;30.328;2022-08-03T13:09:45;25.40;99.90
51273;DHT22;37345;59.828;30.328;2022-08-03T13:12:15;25.30;99.90
51273;DHT22;37345;59.828;30.328;2022-08-03T13:14:42;25.20;99.90
51273;DHT22;37345;59.828;30.328;2022-08-03T13:17:08;25.30;99.90
51273;DHT22;37345;59.828;30.328;2022-08-03T13:19:35;25.30;99.90
51273;DHT22;37345;59.828;30.328;2022-08-03T13:22:25;25.20;99.90
51273;DHT22;37345;59.828;30.328;2022-08-03T13:24:54;25.00;99.90
51273;DHT22;37345;59.828;30.328;2022-08-03T13:27:22;25.00;99.90
51273;DHT22;37345;59.828;30.328;2022-08-03T13:29:48;24.90;99.90
51273;DHT22;37345;59.828;30.328;2022-08-03T13:32:14;25.00;99.90
51273;DHT22;37345;59.828;30.328;2022-08-03T13:34:39;25.00;99.90
51273;DHT22;37345;59.828;30.328;2022-08-03T13:37:05;25.10;99.90
51273;DHT22;37345;59.828;30.328;2022-08-03T13:39:31;25.10;99.90
51273;DHT22;37345;59.828;30.328;2022-08-03T13:41:57;25.20;99.90
51273;DHT22;37345;59.828;30.328;2022-08-03T13:44:23;25.70;99.90
51273;DHT22;37345;59.828;30.328;2022-08-03T13:46:48;24.80;99.90
51273;DHT22;37345;59.828;30.328;2022-08-03T13:49:18;25.10;99.90
51273;DHT22;37345;59.828;30.328;2022-08-03T13:51:46;25.20;99.90
51273;DHT22;37345;59.828;30.328;2022-08-03T13:54:12;25.00;99.90
51273;DHT22;37345;59.828;30.328;2022-08-03T13:56:38;25.20;99.90
51273;DHT22;37345;59.828;30.328;2022-08-03T13:59:04;25.00;99.90
51273;DHT22;37345;59.828;30.328;2022-08-03T14:01:30;25.30;99.90
51273;DHT22;37345;59.828;30.328;2022-08-03T14:03:56;24.90;99.90
51273;DHT22;37345;59.828;30.328;2022-08-03T14:06:23;24.90;99.90
51273;DHT22;37345;59.828;30.328;2022-08-03T14:08:50;25.20;99.90
51273;DHT22;37345;59.828;30.328;2022-08-03T14:11:19;25.10;99.90
51273;DHT22;37345;59.828;30.328;2022-08-03T14:13:45;25.10;99.90
51273;DHT22;37345;59.828;30.328;2022-08-03T14:16:10;24.80;99.90
51273;DHT22;37345;59.828;30.328;2022-08-03T14:18:36;25.00;99.90
51273;DHT22;37345;59.828;30.328;2022-08-03T14:21:03;24.80;99.90
51273;DHT22;37345;59.828;30.328;2022-08-03T14:23:30;25.20;99.90
51273;DHT22;37345;59.828;30.328;2022-08-03T14:25:56;24.60;99.90
51273;DHT22;37345;59.828;30.328;2022-08-03T14:28:23;24.90;99.90
51273;DHT22;37345;59.828;30.328;2022-08-03T14:30:50;24.90;99.90
51273;DHT22;37345;59.828;30.328;2022-08-03T14:33:16;25.00;99.90
51273;DHT22;37345;59.828;30.328;2022-08-03T14:35:42;24.80;99.90
51273;DHT22;37345;59.828;30.328;2022-08-03T14:38:08;23.70;99.90
51273;DHT22;37345;59.828;30.328;2022-08-03T14:40:33;24.60;99.90
51273;DHT22;37345;59.828;30.328;2022-08-03T14:42:59;24.40;99.90
51273;DHT22;37345;59.828;30.328;2022-08-03T14:45:26;24.70;99.90
51273;DHT22;37345;59.828;30.328;2022-08-03T14:47:52;24.60;99.90
51273;DHT22;37345;59.828;30.328;2022-08-03T14:50:18;24.80;99.90
51273;DHT22;37345;59.828;30.328;2022-08-03T14:52:44;25.10;99.90
51273;DHT22;37345;59.828;30.328;2022-08-03T14:55:09;24.80;99.90
51273;DHT22;37345;59.828;30.328;2022-08-03T14:57:35;24.60;99.90
51273;DHT22;37345;59.828;30.328;2022-08-03T15:00:02;24.40;99.90
51273;DHT22;37345;59.828;30.328;2022-08-03T15:02:28;24.30;99.90
51273;DHT22;37345;59.828;30.328;2022-08-03T15:04:55;24.20;99.90
51273;DHT22;37345;59.828;30.328;2022-08-03T15:07:20;24.40;99.90
51273;DHT22;37345;59.828;30.328;2022-08-03T15:09:46;24.40;99.90
51273;DHT22;37345;59.828;30.328;2022-08-03T15:12:12;24.50;99.90
51273;DHT22;37345;59.828;30.328;2022-08-03T15:14:38;24.40;99.90
51273;DHT22;37345;59.828;30.328;2022-08-03T15:17:04;24.60;99.90
51273;DHT22;37345;59.828;30.328;2022-08-03T15:19:30;24.50;99.90
51273;DHT22;37345;59.828;30.328;2022-08-03T15:21:56;24.20;99.90
51273;DHT22;37345;59.828;30.328;2022-08-03T15:24:21;24.50;99.90
51273;DHT22;37345;59.828;30.328;2022-08-03T15:26:47;24.40;99.90
51273;DHT22;37345;59.828;30.328;2022-08-03T15:29:13;24.40;99.90
51273;DHT22;37345;59.828;30.328;2022-08-03T15:31:39;24.30;99.90
51273;DHT22;37345;59.828;30.328;2022-08-03T15:34:05;23.70;99.90
51273;DHT22;37345;59.828;30.328;2022-08-03T15:36:31;24.00;99.90
51273;DHT22;37345;59.828;30.328;2022-08-03T15:38:57;24.30;99.90
51273;DHT22;37345;59.828;30.328;2022-08-03T15:41:23;24.20;99.90
51273;DHT22;37345;59.828;30.328;2022-08-03T15:43:49;24.50;99.90
51273;DHT22;37345;59.828;30.328;2022-08-03T15:46:17;24.30;99.90
51273;DHT22;37345;59.828;30.328;2022-08-03T15:48:43;24.30;99.90
51273;DHT22;37345;59.828;30.328;2022-08-03T15:51:09;24.40;99.90
51273;DHT22;37345;59.828;30.328;2022-08-03T15:53:35;24.40;99.90
51273;DHT22;37345;59.828;30.328;2022-08-03T15:56:02;24.30;99.90
51273;DHT22;37345;59.828;30.328;2022-08-03T15:58:29;24.50;99.90
51273;DHT22;37345;59.828;30.328;2022-08-03T16:01:02;24.30;99.90
51273;DHT22;37345;59.828;30.328;2022-08-03T16:03:28;24.80;99.90
51273;DHT22;37345;59.828;30.328;2022-08-03T16:06:03;24.50;99.90
51273;DHT22;37345;59.828;30.328;2022-08-03T16:08:29;24.20;99.90